Time;durP1;ratioP1;P1;durP2;ratioP2;P2;SDS_P1;SDS_P2;PMS_P1;PMS_P2;Temp;Humidity;BMP_temperature;BMP_pressure;BME280_temperature;BME280_humidity;BME280_pressure;Samples;Min_cycle;Max_cycle;Signal;HPM_P1;HPM_P2
2024/01/26 00:01:39;;;;;;;130.30;33.55;;;;;;;;;;4983655;28;20085;-67
2024/01/26 00:04:05;;;;;;;146.30;35.45;;;;;;;;;;4987891;28;20397;-67
2024/01/26 00:06:31;;;;;;;129.50;33.67;;;;;;;;;;4992424;28;20041;-67
2024/01/26 00:09:07;;;;;;;127.40;33.95;;;;;;;;;;4999816;28;20045;-67
2024/01/26 00:11:33;;;;;;;127.85;33.78;;;;;;;;;;4999803;28;20117;-67
2024/01/26 00:14:00;;;;;;;137.25;34.58;;;;;;;;;;4992918;28;20121;-67
2024/01/26 00:16:26;;;;;;;142.23;35.13;;;;;;;;;;4991383;28;20045;-67
2024/01/26 00:18:52;;;;;;;127.80;34.70;;;;;;;;;;5001230;28;20045;-67
2024/01/26 00:21:18;;;;;;;118.38;33.30;;;;;;;;;;4999451;28;20046;-67
2024/01/26 00:23:45;;;;;;;120.88;31.73;;;;;;;;;;4995368;28;20125;-67
2024/01/26 00:26:14;;;;;;;109.80;33.40;;;;;;;;;;4989465;28;20050;-67
2024/01/26 00:28:40;;;;;;;104.47;30.88;;;;;;;;;;4996317;28;20113;-67
2024/01/26 00:31:06;;;;;;;97.82;30.38;;;;;;;;;;4988025;28;20065;-67
2024/01/26 00:33:33;;;;;;;93.68;30.27;;;;;;;;;;4984682;28;20129;-67
2024/01/26 00:35:59;;;;;;;93.60;29.48;;;;;;;;;;4980908;28;20042;-67
2024/01/26 00:38:25;;;;;;;81.70;27.73;;;;;;;;;;4980586;28;20050;-67
2024/01/26 00:40:51;;;;;;;77.55;26.30;;;;;;;;;;4986904;28;20049;-67
2024/01/26 00:43:18;;;;;;;82.25;26.70;;;;;;;;;;4993809;28;20060;-67
2024/01/26 00:45:45;;;;;;;85.43;28.00;;;;;;;;;;4989684;28;20135;-67
2024/01/26 00:48:11;;;;;;;74.63;24.85;;;;;;;;;;4994899;28;20433;-67
2024/01/26 00:50:37;;;;;;;74.30;25.80;;;;;;;;;;4986091;28;20428;-67
2024/01/26 00:53:03;;;;;;;75.00;25.65;;;;;;;;;;4995594;28;20041;-67
2024/01/26 00:55:30;;;;;;;67.22;23.55;;;;;;;;;;4998326;28;21861;-67
2024/01/26 00:57:56;;;;;;;71.70;23.83;;;;;;;;;;4982821;28;20765;-67
2024/01/26 01:00:24;;;;;;;76.13;24.52;;;;;;;;;;4987720;28;20042;-67
2024/01/26 01:02:50;;;;;;;70.85;24.23;;;;;;;;;;4990002;28;20439;-67
2024/01/26 01:05:17;;;;;;;64.15;23.17;;;;;;;;;;4995460;28;20050;-67
2024/01/26 01:07:43;;;;;;;71.10;22.90;;;;;;;;;;4996251;28;20037;-67
2024/01/26 01:10:11;;;;;;;61.50;21.52;;;;;;;;;;4996374;28;20057;-67
2024/01/26 01:12:39;;;;;;;69.55;22.40;;;;;;;;;;4990709;28;22045;-67
2024/01/26 01:15:05;;;;;;;66.82;22.83;;;;;;;;;;4994648;28;20042;-67
2024/01/26 01:17:31;;;;;;;63.45;22.45;;;;;;;;;;4992896;28;20141;-67
2024/01/26 01:19:58;;;;;;;57.35;21.88;;;;;;;;;;4986258;28;20376;-67
2024/01/26 01:22:24;;;;;;;60.50;21.23;;;;;;;;;;4994091;28;20073;-67
2024/01/26 01:24:50;;;;;;;49.00;21.40;;;;;;;;;;5007990;28;20042;-67
2024/01/26 01:27:16;;;;;;;48.60;20.17;;;;;;;;;;5007617;28;20050;-67
2024/01/26 01:29:43;;;;;;;54.25;20.45;;;;;;;;;;4985256;28;20142;-67
2024/01/26 01:32:09;;;;;;;49.13;19.20;;;;;;;;;;5001287;28;20064;-67
2024/01/26 01:34:37;;;;;;;46.00;18.42;;;;;;;;;;5000261;28;20046;-67
2024/01/26 01:37:03;;;;;;;44.38;18.95;;;;;;;;;;4989163;28;20049;-67
2024/01/26 01:39:29;;;;;;;39.70;17.70;;;;;;;;;;4999918;28;20045;-67
2024/01/26 01:41:55;;;;;;;37.28;17.75;;;;;;;;;;4987319;28;20473;-67
2024/01/26 01:44:22;;;;;;;39.38;19.85;;;;;;;;;;4981962;28;20120;-67
2024/01/26 01:46:48;;;;;;;41.00;19.70;;;;;;;;;;5003480;28;20101;-67
2024/01/26 01:49:14;;;;;;;40.55;19.33;;;;;;;;;;4992540;28;20474;-67
2024/01/26 01:51:44;;;;;;;37.33;17.65;;;;;;;;;;4990942;28;20125;-67
2024/01/26 01:54:10;;;;;;;36.53;16.95;;;;;;;;;;4979821;28;20039;-67
2024/01/26 01:56:39;;;;;;;37.45;17.83;;;;;;;;;;4999423;28;20092;-67
2024/01/26 01:59:05;;;;;;;35.70;18.23;;;;;;;;;;4998362;28;20042;-67
2024/01/26 02:01:32;;;;;;;34.80;16.88;;;;;;;;;;4992601;28;20156;-67
2024/01/26 02:04:02;;;;;;;37.03;17.15;;;;;;;;;;4998077;28;20049;-67
2024/01/26 02:06:28;;;;;;;38.58;18.05;;;;;;;;;;4996081;28;20630;-67
2024/01/26 02:08:55;;;;;;;38.78;19.08;;;;;;;;;;4991380;28;20100;-67
2024/01/26 02:11:21;;;;;;;41.53;19.30;;;;;;;;;;4996765;28;20444;-67
2024/01/26 02:13:47;;;;;;;39.20;19.60;;;;;;;;;;5005238;28;20045;-67
2024/01/26 02:16:13;;;;;;;39.80;19.25;;;;;;;;;;5005276;28;20050;-67
2024/01/26 02:18:39;;;;;;;39.65;19.55;;;;;;;;;;4990777;28;20072;-67
2024/01/26 02:21:06;;;;;;;49.50;22.42;;;;;;;;;;4993638;28;20046;-67
2024/01/26 02:23:32;;;;;;;41.85;19.65;;;;;;;;;;4985812;28;20129;-67
2024/01/26 02:25:58;;;;;;;41.83;21.63;;;;;;;;;;4986455;28;20164;-67
2024/01/26 02:28:24;;;;;;;39.55;20.92;;;;;;;;;;4988991;28;20065;-67
2024/01/26 02:30:50;;;;;;;44.97;23.40;;;;;;;;;;4999463;28;20053;-67
2024/01/26 02:33:17;;;;;;;47.28;25.48;;;;;;;;;;4984458;28;20124;-67
2024/01/26 02:35:43;;;;;;;48.17;23.85;;;;;;;;;;4991958;28;20452;-67
2024/01/26 02:38:09;;;;;;;45.60;24.10;;;;;;;;;;4989427;28;20157;-67
2024/01/26 02:40:35;;;;;;;47.10;26.40;;;;;;;;;;4975457;28;20409;-67
2024/01/26 02:43:01;;;;;;;50.67;25.63;;;;;;;;;;5007245;28;20493;-67
2024/01/26 02:45:27;;;;;;;47.15;26.63;;;;;;;;;;4991794;28;20048;-67
2024/01/26 02:47:54;;;;;;;53.90;26.58;;;;;;;;;;5002759;28;20033;-67
2024/01/26 02:50:20;;;;;;;49.22;24.98;;;;;;;;;;4995592;28;20057;-67
2024/01/26 02:52:47;;;;;;;45.72;26.35;;;;;;;;;;4978063;28;20041;-67
2024/01/26 02:55:13;;;;;;;47.00;25.58;;;;;;;;;;4984700;28;20191;-67
2024/01/26 02:57:39;;;;;;;50.97;26.55;;;;;;;;;;4991444;28;20049;-67
2024/01/26 03:00:07;;;;;;;51.20;26.05;;;;;;;;;;4996787;28;20081;-67
2024/01/26 03:02:33;;;;;;;52.50;25.75;;;;;;;;;;4997871;28;20093;-67
2024/01/26 03:05:00;;;;;;;53.00;24.65;;;;;;;;;;4994237;28;20074;-67
2024/01/26 03:07:26;;;;;;;49.13;24.80;;;;;;;;;;4987769;28;20057;-67
2024/01/26 03:09:52;;;;;;;52.20;24.40;;;;;;;;;;4994640;28;20497;-67
2024/01/26 03:12:18;;;;;;;61.63;26.73;;;;;;;;;;4991796;28;20054;-67
2024/01/26 03:14:44;;;;;;;56.95;24.65;;;;;;;;;;5004375;28;20219;-67
2024/01/26 03:17:11;;;;;;;61.42;25.08;;;;;;;;;;4994458;28;20050;-67
2024/01/26 03:19:37;;;;;;;58.85;24.83;;;;;;;;;;4997991;28;20128;-67
2024/01/26 03:22:03;;;;;;;66.47;25.48;;;;;;;;;;4985041;28;20066;-67
2024/01/26 03:24:29;;;;;;;71.60;26.88;;;;;;;;;;4973267;28;20046;-67
2024/01/26 03:26:55;;;;;;;75.47;27.83;;;;;;;;;;4997612;28;20494;-67
2024/01/26 03:29:22;;;;;;;71.10;26.40;;;;;;;;;;4987403;28;20695;-67
2024/01/26 03:31:48;;;;;;;77.10;28.20;;;;;;;;;;4984700;28;20463;-67
2024/01/26 03:34:15;;;;;;;76.38;29.42;;;;;;;;;;4987670;28;20545;-67
2024/01/26 03:36:41;;;;;;;84.75;31.25;;;;;;;;;;4984926;28;20096;-67
2024/01/26 03:39:09;;;;;;;78.05;29.73;;;;;;;;;;4987178;28;20049;-67
2024/01/26 03:41:39;;;;;;;74.07;28.60;;;;;;;;;;4967834;28;20049;-67
2024/01/26 03:44:06;;;;;;;82.50;30.65;;;;;;;;;;4999093;28;20505;-67
2024/01/26 03:46:32;;;;;;;88.22;32.10;;;;;;;;;;4986473;28;20068;-67
2024/01/26 03:48:58;;;;;;;92.10;33.20;;;;;;;;;;4984672;28;20352;-67
2024/01/26 03:51:24;;;;;;;82.40;30.30;;;;;;;;;;5004677;28;20504;-67
2024/01/26 03:53:50;;;;;;;86.22;30.60;;;;;;;;;;4999456;28;20050;-67
2024/01/26 03:56:16;;;;;;;90.97;34.88;;;;;;;;;;4987524;28;20038;-67
2024/01/26 03:58:44;;;;;;;92.25;33.40;;;;;;;;;;4977564;28;20045;-67
2024/01/26 04:01:10;;;;;;;83.53;31.90;;;;;;;;;;4995212;28;20042;-67
2024/01/26 04:03:37;;;;;;;93.47;34.05;;;;;;;;;;4982259;28;20451;-67
2024/01/26 04:06:03;;;;;;;85.70;33.33;;;;;;;;;;4999592;28;20033;-67
2024/01/26 04:08:30;;;;;;;84.47;33.40;;;;;;;;;;4997058;28;20108;-67
2024/01/26 04:10:56;;;;;;;76.82;32.22;;;;;;;;;;4997047;28;20102;-67
2024/01/26 04:13:22;;;;;;;76.90;32.15;;;;;;;;;;5004057;28;20052;-67
2024/01/26 04:15:48;;;;;;;79.47;32.33;;;;;;;;;;5001435;28;20089;-67
2024/01/26 04:18:14;;;;;;;77.63;32.25;;;;;;;;;;4983852;28;20121;-67
2024/01/26 04:20:40;;;;;;;73.38;34.15;;;;;;;;;;4986526;28;20058;-67
2024/01/26 04:23:07;;;;;;;72.88;32.55;;;;;;;;;;4994180;28;20047;-67
2024/01/26 04:25:33;;;;;;;83.47;32.63;;;;;;;;;;4982243;28;20184;-67
2024/01/26 04:27:59;;;;;;;74.80;33.05;;;;;;;;;;4983195;28;21206;-67
2024/01/26 04:30:25;;;;;;;74.05;33.22;;;;;;;;;;5007755;28;20061;-67
2024/01/26 04:32:54;;;;;;;68.60;32.85;;;;;;;;;;4995406;28;20479;-67
2024/01/26 04:35:20;;;;;;;73.00;31.23;;;;;;;;;;4984699;28;20058;-67
2024/01/26 04:37:46;;;;;;;67.07;31.90;;;;;;;;;;5002157;28;20041;-67
2024/01/26 04:40:13;;;;;;;66.40;31.10;;;;;;;;;;4990265;28;20045;-67
2024/01/26 04:42:39;;;;;;;64.10;29.83;;;;;;;;;;4990386;28;20070;-67
2024/01/26 04:45:05;;;;;;;59.30;29.70;;;;;;;;;;4971280;28;20042;-67
2024/01/26 04:47:31;;;;;;;52.50;28.80;;;;;;;;;;4990366;28;20394;-67
2024/01/26 04:49:58;;;;;;;58.28;29.00;;;;;;;;;;4999710;28;20050;-67
2024/01/26 04:52:24;;;;;;;60.75;29.48;;;;;;;;;;5004187;28;20045;-67
2024/01/26 04:54:50;;;;;;;61.60;28.85;;;;;;;;;;5003088;28;20034;-67
2024/01/26 04:57:16;;;;;;;63.38;29.38;;;;;;;;;;4985408;28;20145;-66
2024/01/26 04:59:42;;;;;;;54.58;27.50;;;;;;;;;;5001118;28;20034;-66
2024/01/26 05:02:08;;;;;;;54.28;28.25;;;;;;;;;;5000833;28;20046;-66
2024/01/26 05:04:35;;;;;;;59.58;28.35;;;;;;;;;;4999215;28;20480;-66
2024/01/26 05:07:01;;;;;;;63.30;31.00;;;;;;;;;;4994704;28;20046;-66
2024/01/26 05:09:28;;;;;;;64.00;30.10;;;;;;;;;;5009240;28;20401;-67
2024/01/26 05:11:54;;;;;;;61.10;30.95;;;;;;;;;;4998329;28;20556;-66
2024/01/26 05:14:22;;;;;;;60.30;30.17;;;;;;;;;;4987947;28;20490;-67
2024/01/26 05:16:48;;;;;;;69.40;30.27;;;;;;;;;;5012619;28;20038;-67
2024/01/26 05:19:15;;;;;;;63.67;28.63;;;;;;;;;;5004079;28;20495;-67
2024/01/26 05:21:41;;;;;;;55.15;29.48;;;;;;;;;;4995134;28;20058;-67
2024/01/26 05:24:07;;;;;;;61.03;30.23;;;;;;;;;;4990571;28;20041;-67
2024/01/26 05:26:38;;;;;;;50.13;28.58;;;;;;;;;;4992629;28;20108;-67
2024/01/26 05:29:06;;;;;;;50.30;27.15;;;;;;;;;;4982364;28;20061;-66
2024/01/26 05:31:33;;;;;;;46.88;25.70;;;;;;;;;;5000167;28;20133;-67
2024/01/26 05:34:00;;;;;;;56.25;27.75;;;;;;;;;;4984455;28;20045;-67
2024/01/26 05:36:26;;;;;;;45.85;24.88;;;;;;;;;;4997106;28;20076;-66
2024/01/26 05:38:52;;;;;;;50.20;26.98;;;;;;;;;;4995253;28;20044;-67
2024/01/26 05:41:18;;;;;;;43.97;26.58;;;;;;;;;;4994699;28;20141;-66
2024/01/26 05:43:44;;;;;;;48.70;25.40;;;;;;;;;;4999218;28;20095;-66
2024/01/26 05:46:11;;;;;;;44.55;25.67;;;;;;;;;;4990272;28;20058;-67
2024/01/26 05:48:37;;;;;;;46.42;25.95;;;;;;;;;;4991141;28;20169;-67
2024/01/26 05:51:03;;;;;;;41.30;25.38;;;;;;;;;;5004272;28;20041;-66
2024/01/26 05:53:29;;;;;;;48.60;26.77;;;;;;;;;;4991338;28;20567;-67
2024/01/26 05:55:55;;;;;;;49.80;27.52;;;;;;;;;;5005217;28;20091;-67
2024/01/26 05:58:22;;;;;;;50.53;27.02;;;;;;;;;;4977049;28;20125;-66
2024/01/26 06:00:48;;;;;;;52.08;27.77;;;;;;;;;;4978674;28;20153;-66
2024/01/26 06:03:14;;;;;;;47.88;26.83;;;;;;;;;;4981749;28;20224;-66
2024/01/26 06:05:40;;;;;;;51.05;27.73;;;;;;;;;;4990678;28;20044;-66
2024/01/26 06:08:06;;;;;;;50.05;27.45;;;;;;;;;;5018507;28;20034;-66
2024/01/26 06:10:32;;;;;;;50.65;28.92;;;;;;;;;;5004843;28;20111;-66
2024/01/26 06:12:59;;;;;;;48.53;26.88;;;;;;;;;;5017115;28;20125;-66
2024/01/26 06:15:25;;;;;;;50.75;28.88;;;;;;;;;;5002398;28;20107;-65
2024/01/26 06:17:51;;;;;;;48.70;26.17;;;;;;;;;;5005479;28;20140;-69
2024/01/26 06:20:17;;;;;;;47.25;25.02;;;;;;;;;;4989406;28;21353;-66
2024/01/26 06:22:44;;;;;;;46.70;25.67;;;;;;;;;;4991022;28;20105;-66
2024/01/26 06:25:10;;;;;;;47.63;25.27;;;;;;;;;;4974851;28;20046;-66
2024/01/26 06:27:37;;;;;;;40.45;22.70;;;;;;;;;;4986798;28;20068;-66
2024/01/26 06:30:04;;;;;;;39.58;23.05;;;;;;;;;;4982227;28;20383;-66
2024/01/26 06:32:30;;;;;;;40.72;24.20;;;;;;;;;;4983455;28;20050;-66
2024/01/26 06:34:56;;;;;;;43.53;24.73;;;;;;;;;;4981079;28;20049;-66
2024/01/26 06:37:22;;;;;;;44.42;22.52;;;;;;;;;;4975934;28;20046;-66
2024/01/26 06:39:48;;;;;;;43.75;23.33;;;;;;;;;;4992978;28;20046;-66
2024/01/26 06:42:14;;;;;;;44.28;24.92;;;;;;;;;;4981051;28;20178;-66
2024/01/26 06:44:41;;;;;;;41.60;23.95;;;;;;;;;;4986075;28;20595;-66
2024/01/26 06:47:07;;;;;;;42.85;23.67;;;;;;;;;;4979036;28;20042;-66
2024/01/26 06:49:33;;;;;;;44.63;23.48;;;;;;;;;;4983042;28;20045;-66
2024/01/26 06:51:59;;;;;;;44.03;22.60;;;;;;;;;;4991058;28;20042;-66
2024/01/26 06:54:25;;;;;;;43.83;23.33;;;;;;;;;;4983189;28;20715;-67
2024/01/26 06:56:52;;;;;;;43.15;22.67;;;;;;;;;;4992473;28;20057;-66
2024/01/26 06:59:18;;;;;;;44.13;23.00;;;;;;;;;;4978122;28;20058;-66
2024/01/26 07:01:44;;;;;;;44.30;23.17;;;;;;;;;;4993379;28;20654;-66
2024/01/26 07:04:10;;;;;;;44.25;22.63;;;;;;;;;;4978424;28;20152;-65
2024/01/26 07:06:37;;;;;;;44.47;21.98;;;;;;;;;;4978832;28;20121;-65
2024/01/26 07:09:03;;;;;;;39.67;21.90;;;;;;;;;;4998919;28;20041;-66
2024/01/26 07:11:29;;;;;;;43.80;22.10;;;;;;;;;;4986347;28;20397;-65
2024/01/26 07:13:56;;;;;;;42.90;21.05;;;;;;;;;;4995509;28;20042;-66
2024/01/26 07:16:22;;;;;;;46.85;22.73;;;;;;;;;;4997390;28;20049;-66
2024/01/26 07:18:48;;;;;;;43.85;21.65;;;;;;;;;;4999881;28;20042;-66
2024/01/26 07:21:18;;;;;;;48.58;23.55;;;;;;;;;;4982432;28;20057;-66
2024/01/26 07:23:44;;;;;;;45.97;23.00;;;;;;;;;;4991855;28;20074;-66
2024/01/26 07:26:10;;;;;;;56.42;24.38;;;;;;;;;;4981288;28;20057;-65
2024/01/26 07:28:36;;;;;;;45.58;21.98;;;;;;;;;;4983762;28;20042;-66
2024/01/26 07:31:03;;;;;;;44.35;21.65;;;;;;;;;;4983278;28;20057;-65
2024/01/26 07:33:29;;;;;;;43.10;21.80;;;;;;;;;;4968368;28;20038;-65
2024/01/26 07:35:56;;;;;;;45.38;20.15;;;;;;;;;;4967090;28;20065;-65
2024/01/26 07:38:22;;;;;;;42.13;20.73;;;;;;;;;;4974719;28;20042;-65
2024/01/26 07:40:48;;;;;;;46.83;23.58;;;;;;;;;;4969077;28;20054;-65
2024/01/26 07:43:15;;;;;;;43.63;22.83;;;;;;;;;;4966980;28;20081;-65
2024/01/26 07:45:41;;;;;;;40.75;22.15;;;;;;;;;;4974593;28;20050;-66
2024/01/26 07:48:12;;;;;;;48.15;23.17;;;;;;;;;;4967348;28;20125;-66
2024/01/26 07:50:38;;;;;;;42.92;21.80;;;;;;;;;;4967199;28;20458;-66
2024/01/26 07:53:04;;;;;;;40.28;20.27;;;;;;;;;;4966810;28;20058;-66
2024/01/26 07:55:30;;;;;;;41.20;20.77;;;;;;;;;;4973063;28;20046;-66
2024/01/26 07:57:56;;;;;;;37.65;18.77;;;;;;;;;;4979452;28;20719;-67
2024/01/26 08:00:23;;;;;;;35.78;18.25;;;;;;;;;;4983833;28;20042;-66
2024/01/26 08:02:49;;;;;;;31.17;16.83;;;;;;;;;;4970268;28;20482;-66
2024/01/26 08:05:15;;;;;;;34.03;15.40;;;;;;;;;;4981033;28;20055;-67
2024/01/26 08:07:41;;;;;;;32.83;14.85;;;;;;;;;;4978111;28;20046;-68
2024/01/26 08:10:09;;;;;;;37.30;15.32;;;;;;;;;;4978071;28;20130;-68
2024/01/26 08:12:36;;;;;;;35.80;13.85;;;;;;;;;;4972436;28;20074;-68
2024/01/26 08:15:02;;;;;;;33.17;12.95;;;;;;;;;;4972536;28;20050;-67
2024/01/26 08:17:28;;;;;;;35.45;13.13;;;;;;;;;;4975323;28;20044;-67
2024/01/26 08:19:55;;;;;;;29.70;13.25;;;;;;;;;;4976501;28;20065;-67
2024/01/26 08:22:21;;;;;;;33.33;12.27;;;;;;;;;;4978742;28;20122;-67
2024/01/26 08:24:47;;;;;;;31.23;11.82;;;;;;;;;;4980875;28;20031;-67
2024/01/26 08:27:13;;;;;;;29.00;10.82;;;;;;;;;;4982313;28;20074;-67
2024/01/26 08:29:40;;;;;;;34.17;11.30;;;;;;;;;;4976193;28;20089;-67
2024/01/26 08:32:06;;;;;;;26.08;9.27;;;;;;;;;;4980590;28;20058;-67
2024/01/26 08:34:33;;;;;;;28.35;8.77;;;;;;;;;;4975924;28;20400;-68
2024/01/26 08:36:59;;;;;;;29.25;8.93;;;;;;;;;;4977696;28;20093;-67
2024/01/26 08:39:27;;;;;;;32.60;7.85;;;;;;;;;;4974565;28;20043;-68
2024/01/26 08:41:55;;;;;;;40.50;8.45;;;;;;;;;;4983295;28;20561;-67
2024/01/26 08:44:21;;;;;;;37.88;8.80;;;;;;;;;;4977501;28;20051;-67
2024/01/26 08:46:48;;;;;;;31.60;8.15;;;;;;;;;;4978349;28;20411;-67
2024/01/26 08:49:14;;;;;;;30.27;8.93;;;;;;;;;;4983928;28;20074;-66
2024/01/26 08:51:40;;;;;;;32.20;6.55;;;;;;;;;;4969219;28;20068;-67
2024/01/26 08:54:07;;;;;;;18.23;3.72;;;;;;;;;;4980815;28;20368;-66
2024/01/26 08:56:34;;;;;;;28.05;5.93;;;;;;;;;;4978069;28;20061;-65
2024/01/26 08:59:01;;;;;;;15.52;2.95;;;;;;;;;;4974829;28;20410;-65
2024/01/26 09:01:27;;;;;;;15.57;2.20;;;;;;;;;;4974841;28;20051;-65
2024/01/26 09:03:54;;;;;;;14.75;2.03;;;;;;;;;;4983149;28;20042;-65
2024/01/26 09:06:20;;;;;;;16.00;3.08;;;;;;;;;;4990709;28;20089;-65
2024/01/26 09:08:46;;;;;;;16.67;3.17;;;;;;;;;;4989482;28;20125;-66
2024/01/26 09:11:12;;;;;;;17.38;3.05;;;;;;;;;;4976386;28;21672;-65
2024/01/26 09:13:39;;;;;;;15.85;3.03;;;;;;;;;;4978890;28;20042;-66
2024/01/26 09:16:05;;;;;;;23.67;4.55;;;;;;;;;;4974163;28;20569;-66
2024/01/26 09:18:31;;;;;;;22.85;2.80;;;;;;;;;;4975773;28;20046;-65
2024/01/26 09:20:59;;;;;;;21.42;3.55;;;;;;;;;;4980258;28;20402;-66
2024/01/26 09:23:25;;;;;;;19.42;3.65;;;;;;;;;;4973778;28;20134;-66
2024/01/26 09:25:51;;;;;;;28.05;4.45;;;;;;;;;;4988910;28;20046;-65
2024/01/26 09:28:17;;;;;;;27.58;3.25;;;;;;;;;;4990857;28;20046;-66
2024/01/26 09:30:44;;;;;;;25.70;3.17;;;;;;;;;;4979478;28;20124;-66
2024/01/26 09:33:10;;;;;;;28.45;3.22;;;;;;;;;;4974547;28;20053;-66
2024/01/26 09:35:36;;;;;;;22.48;3.75;;;;;;;;;;4974235;28;20045;-66
2024/01/26 09:38:02;;;;;;;22.08;3.60;;;;;;;;;;4980780;28;20042;-65
2024/01/26 09:40:29;;;;;;;30.55;3.90;;;;;;;;;;4978184;28;20125;-66
2024/01/26 09:42:55;;;;;;;30.00;5.05;;;;;;;;;;4976168;28;20051;-66
2024/01/26 09:45:22;;;;;;;21.88;4.63;;;;;;;;;;4976410;28;20090;-66
2024/01/26 09:47:52;;;;;;;19.55;4.70;;;;;;;;;;4973764;28;20042;-66
2024/01/26 09:50:20;;;;;;;27.27;4.32;;;;;;;;;;4974578;28;20046;-66
2024/01/26 09:52:47;;;;;;;26.17;3.30;;;;;;;;;;4982306;28;20126;-66
2024/01/26 09:55:15;;;;;;;31.65;5.28;;;;;;;;;;4974888;28;20046;-66
2024/01/26 09:57:45;;;;;;;23.80;3.72;;;;;;;;;;4978032;28;20043;-66
2024/01/26 10:00:11;;;;;;;28.70;4.13;;;;;;;;;;4974102;28;20384;-65
2024/01/26 10:02:37;;;;;;;26.73;4.30;;;;;;;;;;4980230;28;20093;-66
2024/01/26 10:05:05;;;;;;;31.67;3.88;;;;;;;;;;4976554;28;20453;-66
2024/01/26 10:07:31;;;;;;;22.63;4.35;;;;;;;;;;4976013;28;20035;-66
2024/01/26 10:09:57;;;;;;;32.13;4.43;;;;;;;;;;4993185;28;20069;-66
2024/01/26 10:12:23;;;;;;;25.77;5.72;;;;;;;;;;4974457;28;20042;-66
2024/01/26 10:14:50;;;;;;;19.60;3.95;;;;;;;;;;4972863;28;20038;-66
2024/01/26 10:17:18;;;;;;;26.42;3.58;;;;;;;;;;4973040;28;20122;-66
2024/01/26 10:19:44;;;;;;;29.15;5.10;;;;;;;;;;4964734;28;20129;-66
2024/01/26 10:22:10;;;;;;;28.42;5.45;;;;;;;;;;4982727;28;20114;-66
2024/01/26 10:24:36;;;;;;;30.92;3.70;;;;;;;;;;4972814;28;20054;-66
2024/01/26 10:27:03;;;;;;;34.08;7.60;;;;;;;;;;4961028;28;20130;-67
2024/01/26 10:29:29;;;;;;;29.20;3.90;;;;;;;;;;4978155;28;20054;-66
2024/01/26 10:31:55;;;;;;;26.98;4.25;;;;;;;;;;4981195;28;20205;-66
2024/01/26 10:34:22;;;;;;;23.60;4.00;;;;;;;;;;4972755;28;20057;-66
2024/01/26 10:36:49;;;;;;;18.70;3.78;;;;;;;;;;4973843;28;20510;-66
2024/01/26 10:39:18;;;;;;;19.98;3.80;;;;;;;;;;4985447;28;20047;-66
2024/01/26 10:41:47;;;;;;;32.33;4.30;;;;;;;;;;4970013;28;20047;-66
2024/01/26 10:44:15;;;;;;;28.70;5.05;;;;;;;;;;4974171;28;20061;-66
2024/01/26 10:46:42;;;;;;;31.17;5.13;;;;;;;;;;4977045;28;20336;-66
2024/01/26 10:49:10;;;;;;;24.67;3.45;;;;;;;;;;4970188;28;20055;-66
2024/01/26 10:51:38;;;;;;;30.15;4.57;;;;;;;;;;4969226;28;20585;-66
2024/01/26 10:54:12;;;;;;;25.90;4.28;;;;;;;;;;4968299;28;20503;-66
2024/01/26 10:56:39;;;;;;;23.45;4.60;;;;;;;;;;4971937;28;20051;-66
2024/01/26 10:59:07;;;;;;;29.88;4.80;;;;;;;;;;4969930;28;20035;-66
2024/01/26 11:01:33;;;;;;;24.33;4.00;;;;;;;;;;4990582;28;20051;-66
2024/01/26 11:04:01;;;;;;;23.02;4.00;;;;;;;;;;4977464;28;20495;-65
2024/01/26 11:06:28;;;;;;;23.63;3.90;;;;;;;;;;4975582;28;20076;-66
2024/01/26 11:09:08;;;;;;;18.75;3.67;;;;;;;;;;4968501;28;20102;-66
2024/01/26 11:11:36;;;;;;;26.67;5.10;;;;;;;;;;4978583;28;20054;-65
2024/01/26 11:14:03;;;;;;;25.30;4.28;;;;;;;;;;4971961;28;20129;-66
2024/01/26 11:16:34;;;;;;;24.05;4.30;;;;;;;;;;4968134;28;20050;-65
2024/01/26 11:19:01;;;;;;;19.90;3.60;;;;;;;;;;4973967;28;20042;-66
2024/01/26 11:21:38;;;;;;;23.25;4.38;;;;;;;;;;4973946;28;20050;-65
2024/01/26 11:24:16;;;;;;;20.02;3.65;;;;;;;;;;4978274;28;20841;-65
2024/01/26 11:26:42;;;;;;;27.05;4.90;;;;;;;;;;4973035;28;20038;-66
2024/01/26 11:29:11;;;;;;;22.98;3.88;;;;;;;;;;4982594;28;20084;-65
2024/01/26 11:31:37;;;;;;;25.40;4.32;;;;;;;;;;4990738;28;20395;-66
2024/01/26 11:34:03;;;;;;;27.63;4.80;;;;;;;;;;4988885;28;20467;-65
2024/01/26 11:36:32;;;;;;;17.40;3.38;;;;;;;;;;4977348;28;20046;-65
2024/01/26 11:38:59;;;;;;;33.50;8.00;;;;;;;;;;4981830;28;20455;-65
2024/01/26 11:41:25;;;;;;;17.73;4.22;;;;;;;;;;4992259;28;20038;-65
2024/01/26 11:43:52;;;;;;;23.30;3.22;;;;;;;;;;4978919;28;20043;-65
2024/01/26 11:46:20;;;;;;;23.60;3.65;;;;;;;;;;4989045;28;20521;-65
2024/01/26 11:48:46;;;;;;;39.63;7.63;;;;;;;;;;4973932;28;20041;-66
2024/01/26 11:51:14;;;;;;;23.92;4.80;;;;;;;;;;4989946;28;20057;-66
2024/01/26 11:53:40;;;;;;;29.02;5.90;;;;;;;;;;4978381;28;20040;-66
2024/01/26 11:56:07;;;;;;;33.75;5.55;;;;;;;;;;4973713;28;20391;-66
2024/01/26 11:58:33;;;;;;;26.40;3.90;;;;;;;;;;4994318;28;20122;-66
2024/01/26 12:01:01;;;;;;;30.85;5.18;;;;;;;;;;4976450;28;20052;-65
2024/01/26 12:03:28;;;;;;;33.92;5.35;;;;;;;;;;4981232;28;20085;-67
2024/01/26 12:05:55;;;;;;;30.25;4.63;;;;;;;;;;4989284;28;20050;-66
2024/01/26 12:08:23;;;;;;;27.70;5.05;;;;;;;;;;4990808;28;20049;-66
2024/01/26 12:10:49;;;;;;;28.52;5.15;;;;;;;;;;4990978;28;21683;-66
2024/01/26 12:13:15;;;;;;;27.92;3.97;;;;;;;;;;4993301;28;20149;-66
2024/01/26 12:15:43;;;;;;;19.48;3.30;;;;;;;;;;4986447;28;20757;-66
2024/01/26 12:18:11;;;;;;;22.10;4.15;;;;;;;;;;4977963;28;20104;-66
2024/01/26 12:20:38;;;;;;;21.42;3.42;;;;;;;;;;4977726;28;20114;-66
2024/01/26 12:23:04;;;;;;;20.30;3.85;;;;;;;;;;4989654;28;20042;-66
2024/01/26 12:25:31;;;;;;;21.02;3.17;;;;;;;;;;4980854;28;20058;-66
2024/01/26 12:28:02;;;;;;;25.20;3.80;;;;;;;;;;4968448;28;20438;-66
2024/01/26 12:30:29;;;;;;;29.70;4.38;;;;;;;;;;4987119;28;20065;-66
2024/01/26 12:33:03;;;;;;;17.98;4.03;;;;;;;;;;4974442;28;20089;-66
2024/01/26 12:35:33;;;;;;;15.30;2.67;;;;;;;;;;4988689;28;20398;-66
2024/01/26 12:37:59;;;;;;;13.68;2.90;;;;;;;;;;4979873;28;20130;-66
2024/01/26 12:40:25;;;;;;;14.93;3.28;;;;;;;;;;4981624;28;20046;-66
2024/01/26 12:42:51;;;;;;;16.50;2.38;;;;;;;;;;4977218;28;20778;-67
2024/01/26 12:45:18;;;;;;;16.02;2.70;;;;;;;;;;4981603;28;20505;-67
2024/01/26 12:47:44;;;;;;;16.55;2.72;;;;;;;;;;4986755;28;20045;-66
2024/01/26 12:50:10;;;;;;;11.60;2.05;;;;;;;;;;4981295;28;20054;-71
2024/01/26 12:52:36;;;;;;;14.75;2.33;;;;;;;;;;4989490;28;20129;-65
2024/01/26 12:55:03;;;;;;;17.67;2.33;;;;;;;;;;4987923;28;20317;-66
2024/01/26 12:57:30;;;;;;;14.52;2.35;;;;;;;;;;4973652;28;20058;-65
2024/01/26 12:59:56;;;;;;;15.48;1.85;;;;;;;;;;4978098;28;20133;-66
2024/01/26 13:02:22;;;;;;;13.50;2.78;;;;;;;;;;4990701;28;20085;-70
2024/01/26 13:04:52;;;;;;;23.05;5.38;;;;;;;;;;4984013;28;20401;-67
2024/01/26 13:07:20;;;;;;;12.82;2.05;;;;;;;;;;4993320;28;20513;-66
2024/01/26 13:09:48;;;;;;;16.45;2.28;;;;;;;;;;4980798;28;20117;-66
2024/01/26 13:12:15;;;;;;;14.90;2.20;;;;;;;;;;4997060;28;20050;-66
2024/01/26 13:14:42;;;;;;;15.40;2.50;;;;;;;;;;4991575;28;20057;-68
2024/01/26 13:17:09;;;;;;;16.17;2.30;;;;;;;;;;4974677;28;20058;-66
2024/01/26 13:19:35;;;;;;;11.00;2.05;;;;;;;;;;4991533;28;20065;-66
2024/01/26 13:22:03;;;;;;;12.20;2.55;;;;;;;;;;4994070;28;20157;-66
2024/01/26 13:24:30;;;;;;;24.98;3.13;;;;;;;;;;4975333;28;20474;-66
2024/01/26 13:26:56;;;;;;;16.98;3.17;;;;;;;;;;4987534;28;20631;-69
2024/01/26 13:29:23;;;;;;;16.33;3.15;;;;;;;;;;4976256;28;20139;-67
2024/01/26 13:31:49;;;;;;;12.73;3.22;;;;;;;;;;4990998;28;20172;-66
2024/01/26 13:34:17;;;;;;;18.73;2.50;;;;;;;;;;4976837;28;20599;-67
2024/01/26 13:36:44;;;;;;;16.17;2.83;;;;;;;;;;4984003;28;20371;-65
2024/01/26 13:39:10;;;;;;;18.90;2.78;;;;;;;;;;4977648;28;20073;-67
2024/01/26 13:41:38;;;;;;;19.83;3.40;;;;;;;;;;4982415;28;20054;-66
2024/01/26 13:44:04;;;;;;;15.82;2.63;;;;;;;;;;4976155;28;20046;-66
2024/01/26 13:46:30;;;;;;;19.20;3.25;;;;;;;;;;4977237;28;20057;-66
2024/01/26 13:48:57;;;;;;;15.70;2.75;;;;;;;;;;4963345;28;20501;-66
2024/01/26 13:51:24;;;;;;;24.15;4.07;;;;;;;;;;4984359;28;20057;-66
2024/01/26 13:53:50;;;;;;;18.30;3.03;;;;;;;;;;4982869;28;20121;-66
2024/01/26 13:56:18;;;;;;;18.85;2.90;;;;;;;;;;4990011;28;20762;-65
2024/01/26 13:58:45;;;;;;;20.48;3.20;;;;;;;;;;4982717;28;20077;-65
2024/01/26 14:01:11;;;;;;;21.88;3.33;;;;;;;;;;4980429;28;20120;-66
2024/01/26 14:03:39;;;;;;;24.40;3.50;;;;;;;;;;4991384;28;20042;-66
2024/01/26 14:06:06;;;;;;;18.30;3.17;;;;;;;;;;4979574;28;20061;-66
2024/01/26 14:08:32;;;;;;;22.50;3.72;;;;;;;;;;4972652;28;20125;-65
2024/01/26 14:10:59;;;;;;;21.42;3.53;;;;;;;;;;4986219;28;20112;-65
2024/01/26 14:13:25;;;;;;;19.10;3.10;;;;;;;;;;4988823;28;20117;-65
2024/01/26 14:15:51;;;;;;;25.50;4.63;;;;;;;;;;4984728;28;20443;-65
2024/01/26 14:18:18;;;;;;;20.90;2.85;;;;;;;;;;4996688;28;20043;-65